Colonia Pastoril, Argentina
Current Conditions -  °F | °C
As of 4:00 PM on Friday 31 Oct 2014 (Local Time) from SARF Reporting Station
Scattered Clouds Scattered Clouds  
Wind Chill: 84°   Ceiling: Unl
Heat Index: 91°   Visibility: 6mi
Dew Point: 73°   Wind: 18mph
Humidity: 70%   Direction: 160°SSE
Pressure: 29.74"   Gusts: NA
Location:  26.14°S, 58.39°W
Report Text: SARF 311900Z 16016KT 9999 SCT030 FEW040CB29/23 Q1007
Loading
Personal Weather Stations






























Interactive Weather Map New forecast layout! Learn more

10-Day Weather Forecast

Advertisements
Track Severe Weather on mobile